logo
Rechercher aéroport 
image banner adimage banner adimage banner ad
image banner ad

OITP - Parsabade Moghan

Situé à Parsabade Moghan, Iran, Islamic Republic of

ICAO - OITP, IATA - PFQ

Données fournies par Airmate  

Information générale

Coordonnées: N39°36'19" E47°52'34"
Élévation : 249 feet MSL.
 
Voir autres Aéroports à Ardabil Province

Données opérationnelles

Special qualification required
Heure actuelle UTC:
Heure actuelle locale:
Météo
METAR: OITP 201100Z 11006KT 9999 FEW035CB SCT040 22/14 Q1014
Voir NOTAMs / SUP AIP / TFR affectant cet aéroport [VIEW]
Fréquences de communication: [VIEW]

Pistes:

Identifiant RWYQFULongueur (ft)Largeur (ft)SurfaceLDA (ft)
11111°8484148ASP
29291°8484148ASP

Coordonnées de l'aéroport

Adresse: Parsabade Moghan Iran, Islamic Republic of

Vue satellite de OITP